Terminal Aerodrome Forecast
Issued by NWS Austin/San Antonio, TX

Home | Current Version | Previous Version | Text Only | Print | Product List | Glossary On
Versions: 1 2 3 4 5 6 7 8 9 10 11 12 13 14
000
FTUS44 KEWX 201730
TAFDRT
TAF
KDRT 201730Z 2018/2118 12015G25KT P6SM OVC035
      TEMPO 2018/2020 OVC025
     FM210200 14015KT P6SM OVC025
     FM211100 13012KT P6SM OVC010
     FM211600 13010KT P6SM OVC025=

USA.gov is the U.S. government's official web portal to all federal, state and local government web resources and services.